createdAt,value
2023-02-01T03:45:14.855Z,2.15
2023-02-01T03:48:19.301Z,2.34
2023-02-01T03:51:23.109Z,2.55
2023-02-01T03:54:28.207Z,2.71
2023-02-01T03:57:34.680Z,2.82
2023-02-01T04:00:37.136Z,2.90
2023-02-01T04:03:39.535Z,2.95
2023-02-01T04:06:41.874Z,3.12
2023-02-01T04:09:44.440Z,3.23
2023-02-01T04:12:46.697Z,3.24
2023-02-01T04:15:50.824Z,3.40
2023-02-01T04:18:55.838Z,3.30
2023-02-01T04:21:58.330Z,3.30
2023-02-01T04:25:00.473Z,3.16
2023-02-01T04:28:02.952Z,3.20
2023-02-01T04:31:05.752Z,3.31
2023-02-01T04:34:08.224Z,3.36
2023-02-01T04:37:10.424Z,3.50
2023-02-01T04:40:13.178Z,3.44
2023-02-01T04:43:15.777Z,3.53
2023-02-01T04:46:18.358Z,3.55
2023-02-01T04:49:22.237Z,3.52
2023-02-01T04:52:24.755Z,3.36
2023-02-01T04:55:26.951Z,3.44
2023-02-01T04:58:29.395Z,3.46
2023-02-01T05:01:31.789Z,3.51
2023-02-01T05:04:34.277Z,3.53
2023-02-01T05:07:36.438Z,3.60
2023-02-01T05:10:38.859Z,3.69
2023-02-01T05:13:50.024Z,3.76
2023-02-01T05:16:52.635Z,3.82
2023-02-01T05:19:54.803Z,3.80
2023-02-01T05:22:57.328Z,3.76
2023-02-01T05:26:02.750Z,3.79
2023-02-01T05:29:06.241Z,3.81
2023-02-01T05:32:21.612Z,3.77
2023-02-01T05:35:25.206Z,3.78
2023-02-01T05:38:27.360Z,3.55
2023-02-01T05:41:29.938Z,3.54
2023-02-01T05:44:32.102Z,3.42
2023-02-01T05:47:34.561Z,3.46
2023-02-01T05:50:37.122Z,3.78
2023-02-01T05:53:44.732Z,3.73
2023-02-01T05:56:46.870Z,3.76
2023-02-01T05:59:49.726Z,3.90
2023-02-01T06:02:51.890Z,3.95
2023-02-01T06:05:55.634Z,3.96
2023-02-01T06:08:57.774Z,3.98
2023-02-01T06:12:00.393Z,4.00
2023-02-01T06:15:02.913Z,4.01
2023-02-01T06:18:05.620Z,4.01
2023-02-01T06:21:08.708Z,3.96
2023-02-01T06:24:11.714Z,3.93
2023-02-01T06:27:14.282Z,4.03
2023-02-01T06:30:17.053Z,4.08
2023-02-01T06:33:19.374Z,4.02
2023-02-01T06:36:22.222Z,4.12
2023-02-01T06:39:24.938Z,4.20
2023-02-01T06:42:27.308Z,4.25
2023-02-01T06:45:29.459Z,4.33
2023-02-01T06:48:32.164Z,4.38
2023-02-01T06:51:34.361Z,4.39
2023-02-01T06:54:38.265Z,4.37
2023-02-01T06:57:40.439Z,4.37
2023-02-01T07:00:42.835Z,4.40
2023-02-01T07:03:48.836Z,4.48
2023-02-01T07:06:51.437Z,4.36
2023-02-01T07:09:53.671Z,4.41
2023-02-01T07:12:59.110Z,4.45
2023-02-01T07:16:04.096Z,4.48
2023-02-01T07:19:06.897Z,4.52
2023-02-01T07:22:09.118Z,4.60
2023-02-01T07:25:11.694Z,4.69
2023-02-01T07:28:13.947Z,4.75
2023-02-01T07:31:21.945Z,4.85
2023-02-01T07:34:24.224Z,4.99
2023-02-01T07:37:26.663Z,5.13
2023-02-01T07:40:31.746Z,5.31
2023-02-01T07:43:34.478Z,5.36
2023-02-01T07:46:37.169Z,5.39
2023-02-01T07:49:40.101Z,5.56
2023-02-01T07:52:43.102Z,5.59
2023-02-01T07:55:46.385Z,5.58
2023-02-01T07:58:50.619Z,5.81
2023-02-01T08:01:53.073Z,6.06
2023-02-01T08:04:55.578Z,6.09
2023-02-01T08:07:57.761Z,6.41
2023-02-01T08:11:01.599Z,6.56
2023-02-01T08:14:03.767Z,6.80
2023-02-01T08:17:06.455Z,6.52
2023-02-01T08:20:19.865Z,6.42
2023-02-01T08:23:23.751Z,6.16
2023-02-01T08:26:26.929Z,6.23
2023-02-01T08:29:29.515Z,6.22
2023-02-01T08:32:31.824Z,6.24
2023-02-01T08:35:43.439Z,6.19
2023-02-01T08:38:46.435Z,6.03
2023-02-01T08:42:08.790Z,5.97
2023-02-01T08:45:11.540Z,5.79
2023-02-01T08:48:13.963Z,5.93
2023-02-01T08:51:18.468Z,5.86
2023-02-01T08:54:22.322Z,6.00
2023-02-01T08:57:24.493Z,6.05
2023-02-01T09:00:27.007Z,5.97
2023-02-01T09:03:29.183Z,6.00
2023-02-01T09:06:31.584Z,6.18
2023-02-01T09:09:33.992Z,6.17
2023-02-01T09:12:36.883Z,6.07
2023-02-01T09:15:39.122Z,6.00
2023-02-01T09:18:50.669Z,6.38
2023-02-01T09:21:58.666Z,6.95
2023-02-01T09:25:01.387Z,7.72
2023-02-01T09:28:06.854Z,8.18
2023-02-01T09:31:09.385Z,8.91
2023-02-01T09:34:11.596Z,7.95
2023-02-01T09:37:14.022Z,8.77
2023-02-01T09:40:18.168Z,9.91
2023-02-01T09:43:30.058Z,11.11
2023-02-01T09:46:34.749Z,10.82
2023-02-01T09:49:46.097Z,9.49
2023-02-01T09:53:16.698Z,9.03
2023-02-01T09:56:27.550Z,9.96
2023-02-01T09:59:38.699Z,9.67
2023-02-01T10:02:41.488Z,9.51
2023-02-01T10:06:01.298Z,10.52
2023-02-01T10:09:14.076Z,10.06
2023-02-01T10:12:31.796Z,9.88
2023-02-01T10:15:43.768Z,11.05
2023-02-01T10:18:56.983Z,10.20
2023-02-01T10:22:07.804Z,9.25
2023-02-01T10:25:23.693Z,9.43
2023-02-01T10:28:26.897Z,8.59
2023-02-01T10:31:38.261Z,7.99
2023-02-01T10:34:41.115Z,7.61
2023-02-01T10:37:46.124Z,8.16
2023-02-01T10:40:48.676Z,9.59
2023-02-01T10:43:55.497Z,10.22
2023-02-01T10:46:57.920Z,9.86
2023-02-01T10:50:30.776Z,9.65
2023-02-01T10:53:43.812Z,10.41
2023-02-01T10:56:48.981Z,10.27
2023-02-01T10:59:51.199Z,9.57
2023-02-01T11:02:55.241Z,8.84
2023-02-01T11:05:57.882Z,8.14
2023-02-01T11:09:09.298Z,9.43
2023-02-01T11:12:33.212Z,11.10
2023-02-01T11:15:35.740Z,11.75
2023-02-01T11:18:38.856Z,11.81
2023-02-01T11:21:45.872Z,9.47
2023-02-01T11:24:48.771Z,8.28
2023-02-01T11:27:55.936Z,7.84
2023-02-01T11:31:03.074Z,7.40
2023-02-01T11:34:12.403Z,7.16
2023-02-01T11:37:24.161Z,7.16
2023-02-01T11:40:36.531Z,7.19
2023-02-01T11:43:38.740Z,7.14
2023-02-01T11:46:41.229Z,6.72
2023-02-01T11:49:43.738Z,6.28
2023-02-01T11:52:59.331Z,5.84
2023-02-01T11:56:20.224Z,5.56
2023-02-01T11:59:56.717Z,5.32
2023-02-01T12:03:38.104Z,5.33
2023-02-01T12:06:54.815Z,5.28
2023-02-01T12:10:12.683Z,5.07
2023-02-01T12:13:48.232Z,5.20
2023-02-01T12:17:15.372Z,5.21
2023-02-01T12:20:33.511Z,4.95
2023-02-01T12:23:36.979Z,4.76
2023-02-01T12:26:46.894Z,4.64
2023-02-01T12:30:11.322Z,4.55
2023-02-01T12:33:58.048Z,4.29
2023-02-01T12:37:47.029Z,4.05
2023-02-01T12:41:33.809Z,3.87
2023-02-01T12:44:53.025Z,3.61
2023-02-01T12:48:09.624Z,3.61
2023-02-01T12:51:16.686Z,3.53
2023-02-01T12:54:37.422Z,3.56
2023-02-01T12:57:45.677Z,3.51
2023-02-01T13:01:18.260Z,3.77
2023-02-01T13:04:34.318Z,4.06
2023-02-01T13:07:50.548Z,4.44
2023-02-01T13:11:07.321Z,4.79
2023-02-01T13:14:31.120Z,4.95
2023-02-01T13:17:34.809Z,4.84
2023-02-01T13:20:52.889Z,4.44
2023-02-01T13:23:54.986Z,4.25
2023-02-01T13:26:57.961Z,4.04
2023-02-01T13:30:25.193Z,3.85
2023-02-01T13:34:12.278Z,3.69
2023-02-01T13:37:31.344Z,3.74
2023-02-01T13:40:48.639Z,3.80
2023-02-01T13:43:55.534Z,3.83
2023-02-01T13:47:01.147Z,3.77
2023-02-01T13:50:18.805Z,3.82
2023-02-01T13:53:33.747Z,3.99
2023-02-01T13:56:44.253Z,4.02
2023-02-01T13:59:46.597Z,4.00
2023-02-01T14:02:52.957Z,4.11
2023-02-01T14:05:58.151Z,4.05
2023-02-01T14:09:09.414Z,4.10
2023-02-01T14:12:45.672Z,4.57
2023-02-01T14:16:08.024Z,4.34
2023-02-01T14:19:30.952Z,4.00
2023-02-01T14:22:35.346Z,3.94
2023-02-01T14:25:38.794Z,3.92
2023-02-01T14:28:48.411Z,3.89
2023-02-01T14:32:13.696Z,3.98
2023-02-01T14:35:22.762Z,4.03
2023-02-01T14:38:25.454Z,4.06
2023-02-01T14:41:31.909Z,4.26
2023-02-01T14:44:35.362Z,4.35
2023-02-01T14:47:37.411Z,4.20
2023-02-01T14:50:45.314Z,4.12
2023-02-01T14:53:47.896Z,4.19
2023-02-01T14:56:52.182Z,4.20
2023-02-01T15:00:05.719Z,4.42
2023-02-01T15:03:49.343Z,4.30
2023-02-01T15:06:57.452Z,4.19
2023-02-01T15:10:00.886Z,4.01
2023-02-01T15:13:03.059Z,4.02
2023-02-01T15:16:13.427Z,3.94
2023-02-01T15:19:15.920Z,3.99
2023-02-01T15:22:20.342Z,3.80
2023-02-01T15:25:31.080Z,3.69
2023-02-01T15:28:33.744Z,3.54
2023-02-01T15:31:40.072Z,3.47
2023-02-01T15:34:48.749Z,3.61
2023-02-01T15:37:52.358Z,3.53
2023-02-01T15:41:15.807Z,3.46
2023-02-01T15:44:33.328Z,3.50
2023-02-01T15:47:37.068Z,3.53
2023-02-01T15:50:41.185Z,3.46
2023-02-01T15:53:53.892Z,3.47
2023-02-01T15:56:57.296Z,3.44
2023-02-01T16:00:06.496Z,3.33
2023-02-01T16:03:42.166Z,3.26
2023-02-01T16:06:56.450Z,3.33
2023-02-01T16:10:07.966Z,3.69
2023-02-01T16:13:10.893Z,3.81
2023-02-01T16:16:14.879Z,3.97
2023-02-01T16:19:17.507Z,3.92
